sensor_id;sensor_type;location;lat;lon;timestamp;P1;durP1;ratioP1;P2;durP2;ratioP2
31378;SDS011;61664;48.112;11.662;2022-07-29T00:00:12;0.50;;;0.50;;
31378;SDS011;61664;48.112;11.662;2022-07-29T00:02:40;0.60;;;0.60;;
31378;SDS011;61664;48.112;11.662;2022-07-29T00:05:07;0.45;;;0.30;;
31378;SDS011;61664;48.112;11.662;2022-07-29T00:07:36;0.30;;;0.30;;
31378;SDS011;61664;48.112;11.662;2022-07-29T00:10:03;0.40;;;0.40;;
31378;SDS011;61664;48.112;11.662;2022-07-29T00:12:30;0.30;;;0.30;;
31378;SDS011;61664;48.112;11.662;2022-07-29T00:14:58;0.63;;;0.30;;
31378;SDS011;61664;48.112;11.662;2022-07-29T00:17:24;0.40;;;0.40;;
31378;SDS011;61664;48.112;11.662;2022-07-29T00:19:52;0.50;;;0.50;;
31378;SDS011;61664;48.112;11.662;2022-07-29T00:22:19;0.50;;;0.50;;
31378;SDS011;61664;48.112;11.662;2022-07-29T00:24:47;0.52;;;0.45;;
31378;SDS011;61664;48.112;11.662;2022-07-29T00:27:15;0.52;;;0.38;;
31378;SDS011;61664;48.112;11.662;2022-07-29T00:29:44;0.70;;;0.70;;
31378;SDS011;61664;48.112;11.662;2022-07-29T00:32:11;1.15;;;0.40;;
31378;SDS011;61664;48.112;11.662;2022-07-29T00:34:38;0.40;;;0.30;;
31378;SDS011;61664;48.112;11.662;2022-07-29T00:37:24;0.30;;;0.30;;
31378;SDS011;61664;48.112;11.662;2022-07-29T00:39:51;0.50;;;0.50;;
31378;SDS011;61664;48.112;11.662;2022-07-29T00:42:18;0.40;;;0.40;;
31378;SDS011;61664;48.112;11.662;2022-07-29T00:44:46;0.50;;;0.50;;
31378;SDS011;61664;48.112;11.662;2022-07-29T00:47:13;0.40;;;0.40;;
31378;SDS011;61664;48.112;11.662;2022-07-29T00:49:40;0.30;;;0.30;;
31378;SDS011;61664;48.112;11.662;2022-07-29T00:52:09;0.88;;;0.60;;
31378;SDS011;61664;48.112;11.662;2022-07-29T00:54:42;0.45;;;0.43;;
31378;SDS011;61664;48.112;11.662;2022-07-29T00:57:10;0.45;;;0.45;;
31378;SDS011;61664;48.112;11.662;2022-07-29T00:59:38;0.47;;;0.40;;
31378;SDS011;61664;48.112;11.662;2022-07-29T01:02:05;0.77;;;0.77;;
31378;SDS011;61664;48.112;11.662;2022-07-29T01:04:32;1.05;;;0.60;;
31378;SDS011;61664;48.112;11.662;2022-07-29T01:07:02;0.50;;;0.50;;
31378;SDS011;61664;48.112;11.662;2022-07-29T01:09:31;0.55;;;0.50;;
31378;SDS011;61664;48.112;11.662;2022-07-29T01:12:13;0.82;;;0.45;;
31378;SDS011;61664;48.112;11.662;2022-07-29T01:14:45;0.50;;;0.50;;
31378;SDS011;61664;48.112;11.662;2022-07-29T01:17:22;0.65;;;0.65;;
31378;SDS011;61664;48.112;11.662;2022-07-29T01:20:16;0.68;;;0.68;;
31378;SDS011;61664;48.112;11.662;2022-07-29T01:31:07;0.40;;;0.40;;
31378;SDS011;61664;48.112;11.662;2022-07-29T01:33:53;0.60;;;0.40;;
31378;SDS011;61664;48.112;11.662;2022-07-29T01:36:27;0.40;;;0.40;;
31378;SDS011;61664;48.112;11.662;2022-07-29T01:42:05;0.35;;;0.35;;
31378;SDS011;61664;48.112;11.662;2022-07-29T01:44:50;0.40;;;0.40;;
31378;SDS011;61664;48.112;11.662;2022-07-29T01:47:39;0.40;;;0.40;;
31378;SDS011;61664;48.112;11.662;2022-07-29T01:50:16;0.40;;;0.40;;
31378;SDS011;61664;48.112;11.662;2022-07-29T01:52:58;0.43;;;0.43;;
31378;SDS011;61664;48.112;11.662;2022-07-29T01:55:29;0.70;;;0.28;;
31378;SDS011;61664;48.112;11.662;2022-07-29T01:58:03;0.50;;;0.50;;
31378;SDS011;61664;48.112;11.662;2022-07-29T02:00:33;1.13;;;0.50;;
31378;SDS011;61664;48.112;11.662;2022-07-29T02:03:03;0.40;;;0.40;;
31378;SDS011;61664;48.112;11.662;2022-07-29T02:05:37;0.95;;;0.50;;
31378;SDS011;61664;48.112;11.662;2022-07-29T02:08:08;0.30;;;0.30;;
31378;SDS011;61664;48.112;11.662;2022-07-29T02:10:38;0.38;;;0.35;;
31378;SDS011;61664;48.112;11.662;2022-07-29T02:15:37;0.40;;;0.40;;
31378;SDS011;61664;48.112;11.662;2022-07-29T02:18:09;0.55;;;0.50;;
31378;SDS011;61664;48.112;11.662;2022-07-29T02:20:44;1.02;;;0.50;;
31378;SDS011;61664;48.112;11.662;2022-07-29T02:23:16;0.40;;;0.40;;
31378;SDS011;61664;48.112;11.662;2022-07-29T02:25:48;0.20;;;0.20;;
31378;SDS011;61664;48.112;11.662;2022-07-29T02:28:19;0.40;;;0.40;;
31378;SDS011;61664;48.112;11.662;2022-07-29T02:30:49;0.30;;;0.30;;
31378;SDS011;61664;48.112;11.662;2022-07-29T02:33:21;0.30;;;0.30;;
31378;SDS011;61664;48.112;11.662;2022-07-29T02:35:50;0.50;;;0.50;;
31378;SDS011;61664;48.112;11.662;2022-07-29T02:38:18;0.30;;;0.30;;
31378;SDS011;61664;48.112;11.662;2022-07-29T02:41:08;0.38;;;0.38;;
31378;SDS011;61664;48.112;11.662;2022-07-29T02:43:43;0.40;;;0.40;;
31378;SDS011;61664;48.112;11.662;2022-07-29T02:46:16;0.50;;;0.50;;
31378;SDS011;61664;48.112;11.662;2022-07-29T02:49:09;0.30;;;0.30;;
31378;SDS011;61664;48.112;11.662;2022-07-29T02:51:54;0.43;;;0.40;;
31378;SDS011;61664;48.112;11.662;2022-07-29T02:54:37;1.15;;;0.45;;
31378;SDS011;61664;48.112;11.662;2022-07-29T02:57:54;0.45;;;0.45;;
31378;SDS011;61664;48.112;11.662;2022-07-29T03:00:21;0.45;;;0.45;;
31378;SDS011;61664;48.112;11.662;2022-07-29T03:02:52;0.68;;;0.38;;
31378;SDS011;61664;48.112;11.662;2022-07-29T03:05:24;0.93;;;0.40;;
31378;SDS011;61664;48.112;11.662;2022-07-29T03:08:11;0.93;;;0.50;;
31378;SDS011;61664;48.112;11.662;2022-07-29T03:10:43;1.27;;;0.40;;
31378;SDS011;61664;48.112;11.662;2022-07-29T03:13:13;0.40;;;0.40;;
31378;SDS011;61664;48.112;11.662;2022-07-29T03:15:44;0.50;;;0.40;;
31378;SDS011;61664;48.112;11.662;2022-07-29T03:18:12;0.50;;;0.50;;
31378;SDS011;61664;48.112;11.662;2022-07-29T03:20:40;0.40;;;0.40;;
31378;SDS011;61664;48.112;11.662;2022-07-29T03:23:08;0.55;;;0.40;;
31378;SDS011;61664;48.112;11.662;2022-07-29T03:25:35;0.40;;;0.40;;
31378;SDS011;61664;48.112;11.662;2022-07-29T03:28:02;0.98;;;0.50;;
31378;SDS011;61664;48.112;11.662;2022-07-29T03:30:29;1.80;;;0.40;;
31378;SDS011;61664;48.112;11.662;2022-07-29T03:32:57;0.60;;;0.60;;
31378;SDS011;61664;48.112;11.662;2022-07-29T03:35:24;0.30;;;0.30;;
31378;SDS011;61664;48.112;11.662;2022-07-29T03:37:51;1.58;;;0.60;;
31378;SDS011;61664;48.112;11.662;2022-07-29T03:40:23;0.47;;;0.38;;
31378;SDS011;61664;48.112;11.662;2022-07-29T03:43:01;0.40;;;0.40;;
31378;SDS011;61664;48.112;11.662;2022-07-29T03:45:34;0.45;;;0.40;;
31378;SDS011;61664;48.112;11.662;2022-07-29T03:48:07;0.50;;;0.50;;
31378;SDS011;61664;48.112;11.662;2022-07-29T03:50:38;0.32;;;0.32;;
31378;SDS011;61664;48.112;11.662;2022-07-29T03:53:06;0.57;;;0.50;;
31378;SDS011;61664;48.112;11.662;2022-07-29T03:55:37;0.57;;;0.57;;
31378;SDS011;61664;48.112;11.662;2022-07-29T03:58:11;0.40;;;0.40;;
31378;SDS011;61664;48.112;11.662;2022-07-29T04:00:41;0.30;;;0.30;;
31378;SDS011;61664;48.112;11.662;2022-07-29T04:03:09;0.55;;;0.52;;
31378;SDS011;61664;48.112;11.662;2022-07-29T04:05:37;0.38;;;0.35;;
31378;SDS011;61664;48.112;11.662;2022-07-29T04:08:04;0.50;;;0.50;;
31378;SDS011;61664;48.112;11.662;2022-07-29T04:10:31;0.40;;;0.40;;
31378;SDS011;61664;48.112;11.662;2022-07-29T04:12:59;0.60;;;0.43;;
31378;SDS011;61664;48.112;11.662;2022-07-29T04:15:26;1.23;;;0.50;;
31378;SDS011;61664;48.112;11.662;2022-07-29T04:17:57;0.70;;;0.50;;
31378;SDS011;61664;48.112;11.662;2022-07-29T04:20:25;0.55;;;0.52;;
31378;SDS011;61664;48.112;11.662;2022-07-29T04:22:51;0.50;;;0.50;;
31378;SDS011;61664;48.112;11.662;2022-07-29T04:25:18;0.57;;;0.50;;
31378;SDS011;61664;48.112;11.662;2022-07-29T04:27:46;0.57;;;0.57;;
31378;SDS011;61664;48.112;11.662;2022-07-29T04:30:28;0.93;;;0.40;;
31378;SDS011;61664;48.112;11.662;2022-07-29T04:32:56;0.40;;;0.40;;
31378;SDS011;61664;48.112;11.662;2022-07-29T04:35:23;0.52;;;0.45;;
31378;SDS011;61664;48.112;11.662;2022-07-29T04:37:53;0.60;;;0.60;;
31378;SDS011;61664;48.112;11.662;2022-07-29T04:40:20;0.50;;;0.40;;
31378;SDS011;61664;48.112;11.662;2022-07-29T04:42:47;0.47;;;0.47;;
31378;SDS011;61664;48.112;11.662;2022-07-29T04:45:14;0.50;;;0.45;;
31378;SDS011;61664;48.112;11.662;2022-07-29T04:47:47;0.60;;;0.60;;
31378;SDS011;61664;48.112;11.662;2022-07-29T04:50:15;0.65;;;0.60;;
31378;SDS011;61664;48.112;11.662;2022-07-29T04:52:42;0.70;;;0.70;;
31378;SDS011;61664;48.112;11.662;2022-07-29T04:55:09;0.55;;;0.52;;
31378;SDS011;61664;48.112;11.662;2022-07-29T04:57:36;0.57;;;0.57;;
31378;SDS011;61664;48.112;11.662;2022-07-29T05:00:03;0.63;;;0.60;;
31378;SDS011;61664;48.112;11.662;2022-07-29T05:02:32;0.63;;;0.63;;
31378;SDS011;61664;48.112;11.662;2022-07-29T05:04:59;0.70;;;0.70;;
31378;SDS011;61664;48.112;11.662;2022-07-29T05:07:26;0.68;;;0.68;;
31378;SDS011;61664;48.112;11.662;2022-07-29T05:09:53;0.80;;;0.60;;
31378;SDS011;61664;48.112;11.662;2022-07-29T05:12:23;0.63;;;0.63;;
31378;SDS011;61664;48.112;11.662;2022-07-29T05:14:51;0.70;;;0.70;;
31378;SDS011;61664;48.112;11.662;2022-07-29T05:17:18;0.60;;;0.60;;
31378;SDS011;61664;48.112;11.662;2022-07-29T05:19:45;0.75;;;0.50;;
31378;SDS011;61664;48.112;11.662;2022-07-29T05:22:12;0.65;;;0.65;;
31378;SDS011;61664;48.112;11.662;2022-07-29T05:24:39;0.93;;;0.77;;
31378;SDS011;61664;48.112;11.662;2022-07-29T05:27:06;0.60;;;0.60;;
31378;SDS011;61664;48.112;11.662;2022-07-29T05:29:33;1.02;;;0.60;;
31378;SDS011;61664;48.112;11.662;2022-07-29T05:32:10;0.70;;;0.70;;
31378;SDS011;61664;48.112;11.662;2022-07-29T05:34:38;0.90;;;0.82;;
31378;SDS011;61664;48.112;11.662;2022-07-29T05:37:16;0.55;;;0.55;;
31378;SDS011;61664;48.112;11.662;2022-07-29T05:39:47;0.70;;;0.60;;
31378;SDS011;61664;48.112;11.662;2022-07-29T05:42:21;0.70;;;0.60;;
31378;SDS011;61664;48.112;11.662;2022-07-29T05:44:48;0.55;;;0.55;;
31378;SDS011;61664;48.112;11.662;2022-07-29T05:47:15;0.63;;;0.63;;
31378;SDS011;61664;48.112;11.662;2022-07-29T05:49:42;0.73;;;0.73;;
31378;SDS011;61664;48.112;11.662;2022-07-29T05:52:09;0.60;;;0.60;;
31378;SDS011;61664;48.112;11.662;2022-07-29T05:54:36;0.52;;;0.52;;
31378;SDS011;61664;48.112;11.662;2022-07-29T05:57:03;0.60;;;0.60;;
31378;SDS011;61664;48.112;11.662;2022-07-29T05:59:34;0.70;;;0.70;;
31378;SDS011;61664;48.112;11.662;2022-07-29T06:02:04;0.70;;;0.70;;
31378;SDS011;61664;48.112;11.662;2022-07-29T06:04:32;0.80;;;0.80;;
31378;SDS011;61664;48.112;11.662;2022-07-29T06:06:59;1.52;;;0.65;;
31378;SDS011;61664;48.112;11.662;2022-07-29T06:09:27;0.80;;;0.80;;
31378;SDS011;61664;48.112;11.662;2022-07-29T06:11:54;0.82;;;0.80;;
31378;SDS011;61664;48.112;11.662;2022-07-29T06:14:21;0.73;;;0.70;;
31378;SDS011;61664;48.112;11.662;2022-07-29T06:16:48;0.70;;;0.70;;
31378;SDS011;61664;48.112;11.662;2022-07-29T06:19:16;0.60;;;0.60;;
31378;SDS011;61664;48.112;11.662;2022-07-29T06:21:43;0.57;;;0.55;;
31378;SDS011;61664;48.112;11.662;2022-07-29T06:24:11;1.48;;;1.00;;
31378;SDS011;61664;48.112;11.662;2022-07-29T06:26:41;0.73;;;0.73;;
31378;SDS011;61664;48.112;11.662;2022-07-29T06:29:08;0.65;;;0.65;;
31378;SDS011;61664;48.112;11.662;2022-07-29T06:31:37;0.57;;;0.57;;
31378;SDS011;61664;48.112;11.662;2022-07-29T06:34:04;0.90;;;0.90;;
31378;SDS011;61664;48.112;11.662;2022-07-29T06:36:35;0.68;;;0.68;;
31378;SDS011;61664;48.112;11.662;2022-07-29T06:39:08;0.88;;;0.80;;
31378;SDS011;61664;48.112;11.662;2022-07-29T06:41:37;1.02;;;0.93;;
31378;SDS011;61664;48.112;11.662;2022-07-29T06:44:04;0.60;;;0.60;;
31378;SDS011;61664;48.112;11.662;2022-07-29T06:46:31;0.75;;;0.75;;
31378;SDS011;61664;48.112;11.662;2022-07-29T06:48:59;1.15;;;0.70;;
31378;SDS011;61664;48.112;11.662;2022-07-29T06:51:29;0.60;;;0.60;;
31378;SDS011;61664;48.112;11.662;2022-07-29T06:53:56;0.70;;;0.70;;
31378;SDS011;61664;48.112;11.662;2022-07-29T06:56:29;1.67;;;0.65;;
31378;SDS011;61664;48.112;11.662;2022-07-29T06:59:04;0.75;;;0.70;;
31378;SDS011;61664;48.112;11.662;2022-07-29T07:01:31;0.88;;;0.80;;
31378;SDS011;61664;48.112;11.662;2022-07-29T07:03:58;1.10;;;0.75;;
31378;SDS011;61664;48.112;11.662;2022-07-29T07:06:25;0.70;;;0.70;;
31378;SDS011;61664;48.112;11.662;2022-07-29T07:08:53;0.63;;;0.63;;
31378;SDS011;61664;48.112;11.662;2022-07-29T07:11:20;1.80;;;0.82;;
31378;SDS011;61664;48.112;11.662;2022-07-29T07:13:47;0.75;;;0.75;;
31378;SDS011;61664;48.112;11.662;2022-07-29T07:16:14;1.25;;;0.80;;
31378;SDS011;61664;48.112;11.662;2022-07-29T07:18:42;0.45;;;0.45;;
31378;SDS011;61664;48.112;11.662;2022-07-29T07:21:11;0.80;;;0.80;;
31378;SDS011;61664;48.112;11.662;2022-07-29T07:23:44;0.60;;;0.60;;
31378;SDS011;61664;48.112;11.662;2022-07-29T07:26:12;0.50;;;0.50;;
31378;SDS011;61664;48.112;11.662;2022-07-29T07:28:39;0.80;;;0.80;;
31378;SDS011;61664;48.112;11.662;2022-07-29T07:31:06;0.63;;;0.63;;
31378;SDS011;61664;48.112;11.662;2022-07-29T07:33:33;0.60;;;0.60;;
31378;SDS011;61664;48.112;11.662;2022-07-29T07:36:00;0.60;;;0.60;;
31378;SDS011;61664;48.112;11.662;2022-07-29T07:38:27;0.50;;;0.50;;
31378;SDS011;61664;48.112;11.662;2022-07-29T07:40:54;0.63;;;0.63;;
31378;SDS011;61664;48.112;11.662;2022-07-29T07:43:21;0.73;;;0.60;;
31378;SDS011;61664;48.112;11.662;2022-07-29T07:45:48;1.17;;;0.90;;
31378;SDS011;61664;48.112;11.662;2022-07-29T07:48:16;1.38;;;0.57;;
31378;SDS011;61664;48.112;11.662;2022-07-29T07:50:43;0.75;;;0.63;;
31378;SDS011;61664;48.112;11.662;2022-07-29T07:53:10;0.50;;;0.50;;
31378;SDS011;61664;48.112;11.662;2022-07-29T07:55:40;0.60;;;0.60;;
31378;SDS011;61664;48.112;11.662;2022-07-29T07:58:28;0.90;;;0.90;;
31378;SDS011;61664;48.112;11.662;2022-07-29T08:00:56;0.50;;;0.50;;
31378;SDS011;61664;48.112;11.662;2022-07-29T08:03:23;0.57;;;0.50;;
31378;SDS011;61664;48.112;11.662;2022-07-29T08:05:50;0.60;;;0.60;;
31378;SDS011;61664;48.112;11.662;2022-07-29T08:08:18;0.85;;;0.65;;
31378;SDS011;61664;48.112;11.662;2022-07-29T08:10:45;0.50;;;0.50;;
31378;SDS011;61664;48.112;11.662;2022-07-29T08:13:21;1.05;;;0.80;;
31378;SDS011;61664;48.112;11.662;2022-07-29T08:15:56;0.88;;;0.85;;
31378;SDS011;61664;48.112;11.662;2022-07-29T08:18:26;0.80;;;0.80;;
31378;SDS011;61664;48.112;11.662;2022-07-29T08:21:01;0.93;;;0.80;;
31378;SDS011;61664;48.112;11.662;2022-07-29T08:23:29;0.65;;;0.65;;
31378;SDS011;61664;48.112;11.662;2022-07-29T08:26:13;1.23;;;0.80;;
31378;SDS011;61664;48.112;11.662;2022-07-29T08:28:42;1.85;;;0.68;;
31378;SDS011;61664;48.112;11.662;2022-07-29T08:31:12;1.35;;;0.60;;
31378;SDS011;61664;48.112;11.662;2022-07-29T08:33:40;0.90;;;0.60;;
31378;SDS011;61664;48.112;11.662;2022-07-29T08:36:07;1.00;;;0.73;;
31378;SDS011;61664;48.112;11.662;2022-07-29T08:38:35;1.65;;;0.60;;
31378;SDS011;61664;48.112;11.662;2022-07-29T08:41:02;0.95;;;0.65;;
31378;SDS011;61664;48.112;11.662;2022-07-29T08:43:29;0.63;;;0.63;;
31378;SDS011;61664;48.112;11.662;2022-07-29T08:45:56;0.50;;;0.50;;
31378;SDS011;61664;48.112;11.662;2022-07-29T08:48:23;0.40;;;0.40;;
31378;SDS011;61664;48.112;11.662;2022-07-29T08:50:55;0.60;;;0.60;;
31378;SDS011;61664;48.112;11.662;2022-07-29T08:53:24;0.73;;;0.73;;
31378;SDS011;61664;48.112;11.662;2022-07-29T08:55:54;0.80;;;0.80;;
31378;SDS011;61664;48.112;11.662;2022-07-29T08:58:23;0.70;;;0.70;;
31378;SDS011;61664;48.112;11.662;2022-07-29T09:00:52;0.80;;;0.77;;
31378;SDS011;61664;48.112;11.662;2022-07-29T09:03:24;0.88;;;0.88;;
31378;SDS011;61664;48.112;11.662;2022-07-29T09:05:57;3.17;;;0.73;;
31378;SDS011;61664;48.112;11.662;2022-07-29T09:08:25;1.33;;;1.00;;
31378;SDS011;61664;48.112;11.662;2022-07-29T09:10:52;2.50;;;0.75;;
31378;SDS011;61664;48.112;11.662;2022-07-29T09:13:22;2.25;;;0.60;;
31378;SDS011;61664;48.112;11.662;2022-07-29T09:15:49;1.38;;;1.17;;
31378;SDS011;61664;48.112;11.662;2022-07-29T09:21:05;1.35;;;0.75;;
31378;SDS011;61664;48.112;11.662;2022-07-29T09:26:41;0.98;;;0.90;;
31378;SDS011;61664;48.112;11.662;2022-07-29T09:29:19;1.35;;;1.05;;
31378;SDS011;61664;48.112;11.662;2022-07-29T09:31:52;0.75;;;0.75;;
31378;SDS011;61664;48.112;11.662;2022-07-29T09:34:25;0.95;;;0.95;;
31378;SDS011;61664;48.112;11.662;2022-07-29T09:36:54;0.93;;;0.90;;
31378;SDS011;61664;48.112;11.662;2022-07-29T09:42:04;0.93;;;0.85;;
31378;SDS011;61664;48.112;11.662;2022-07-29T09:44:42;1.27;;;1.20;;
31378;SDS011;61664;48.112;11.662;2022-07-29T09:47:11;0.90;;;0.90;;
31378;SDS011;61664;48.112;11.662;2022-07-29T09:49:55;1.48;;;0.90;;
31378;SDS011;61664;48.112;11.662;2022-07-29T09:52:29;1.52;;;0.80;;
31378;SDS011;61664;48.112;11.662;2022-07-29T09:55:06;1.00;;;1.00;;
31378;SDS011;61664;48.112;11.662;2022-07-29T09:57:43;1.30;;;1.20;;
31378;SDS011;61664;48.112;11.662;2022-07-29T10:00:12;3.10;;;1.00;;
31378;SDS011;61664;48.112;11.662;2022-07-29T10:02:45;0.77;;;0.70;;
31378;SDS011;61664;48.112;11.662;2022-07-29T10:05:17;1.10;;;1.00;;
31378;SDS011;61664;48.112;11.662;2022-07-29T10:10:23;0.73;;;0.73;;
31378;SDS011;61664;48.112;11.662;2022-07-29T10:13:08;1.60;;;1.00;;
31378;SDS011;61664;48.112;11.662;2022-07-29T10:15:42;0.77;;;0.77;;
31378;SDS011;61664;48.112;11.662;2022-07-29T10:18:13;1.73;;;0.85;;
31378;SDS011;61664;48.112;11.662;2022-07-29T10:20:43;0.90;;;0.90;;
31378;SDS011;61664;48.112;11.662;2022-07-29T10:23:11;1.85;;;1.15;;
31378;SDS011;61664;48.112;11.662;2022-07-29T10:25:38;0.80;;;0.80;;
31378;SDS011;61664;48.112;11.662;2022-07-29T10:28:11;0.88;;;0.88;;
31378;SDS011;61664;48.112;11.662;2022-07-29T10:30:42;0.98;;;0.90;;
31378;SDS011;61664;48.112;11.662;2022-07-29T10:33:21;1.40;;;1.30;;
31378;SDS011;61664;48.112;11.662;2022-07-29T10:39:45;1.00;;;1.00;;
31378;SDS011;61664;48.112;11.662;2022-07-29T10:42:55;1.20;;;1.10;;
31378;SDS011;61664;48.112;11.662;2022-07-29T10:45:46;1.50;;;1.20;;
31378;SDS011;61664;48.112;11.662;2022-07-29T10:48:17;0.93;;;0.93;;
31378;SDS011;61664;48.112;11.662;2022-07-29T10:50:59;1.00;;;1.00;;
31378;SDS011;61664;48.112;11.662;2022-07-29T10:53:51;1.20;;;1.10;;
31378;SDS011;61664;48.112;11.662;2022-07-29T10:56:23;1.20;;;1.10;;
31378;SDS011;61664;48.112;11.662;2022-07-29T11:01:49;1.00;;;1.00;;
31378;SDS011;61664;48.112;11.662;2022-07-29T11:07:10;1.23;;;1.02;;
31378;SDS011;61664;48.112;11.662;2022-07-29T11:09:40;1.20;;;1.10;;
31378;SDS011;61664;48.112;11.662;2022-07-29T11:15:05;0.93;;;0.93;;
31378;SDS011;61664;48.112;11.662;2022-07-29T11:20:36;0.90;;;0.90;;
31378;SDS011;61664;48.112;11.662;2022-07-29T11:23:24;1.48;;;1.35;;
31378;SDS011;61664;48.112;11.662;2022-07-29T11:34:16;1.20;;;1.10;;
31378;SDS011;61664;48.112;11.662;2022-07-29T11:39:44;1.02;;;0.93;;
31378;SDS011;61664;48.112;11.662;2022-07-29T11:45:00;1.23;;;1.20;;
31378;SDS011;61664;48.112;11.662;2022-07-29T11:47:53;1.25;;;1.15;;
31378;SDS011;61664;48.112;11.662;2022-07-29T11:50:45;1.00;;;0.88;;
31378;SDS011;61664;48.112;11.662;2022-07-29T11:53:13;1.10;;;1.00;;
31378;SDS011;61664;48.112;11.662;2022-07-29T11:55:41;1.77;;;1.35;;
31378;SDS011;61664;48.112;11.662;2022-07-29T11:58:20;2.88;;;0.90;;
31378;SDS011;61664;48.112;11.662;2022-07-29T12:00:50;1.23;;;1.23;;
31378;SDS011;61664;48.112;11.662;2022-07-29T12:03:25;1.58;;;1.33;;
31378;SDS011;61664;48.112;11.662;2022-07-29T12:06:01;1.60;;;1.50;;
31378;SDS011;61664;48.112;11.662;2022-07-29T12:08:46;0.82;;;0.82;;
31378;SDS011;61664;48.112;11.662;2022-07-29T12:11:17;1.02;;;0.98;;
31378;SDS011;61664;48.112;11.662;2022-07-29T12:13:49;1.08;;;1.08;;
31378;SDS011;61664;48.112;11.662;2022-07-29T12:16:17;1.05;;;1.02;;
31378;SDS011;61664;48.112;11.662;2022-07-29T12:19:00;1.20;;;1.10;;
31378;SDS011;61664;48.112;11.662;2022-07-29T12:21:35;1.20;;;1.10;;
31378;SDS011;61664;48.112;11.662;2022-07-29T12:24:24;1.33;;;1.23;;
31378;SDS011;61664;48.112;11.662;2022-07-29T12:26:54;1.20;;;1.20;;
31378;SDS011;61664;48.112;11.662;2022-07-29T12:29:23;1.30;;;0.85;;
31378;SDS011;61664;48.112;11.662;2022-07-29T12:32:00;0.85;;;0.85;;
31378;SDS011;61664;48.112;11.662;2022-07-29T12:34:44;0.90;;;0.90;;
31378;SDS011;61664;48.112;11.662;2022-07-29T12:37:11;0.80;;;0.80;;
31378;SDS011;61664;48.112;11.662;2022-07-29T12:39:39;1.30;;;1.30;;
31378;SDS011;61664;48.112;11.662;2022-07-29T12:42:15;0.80;;;0.80;;
31378;SDS011;61664;48.112;11.662;2022-07-29T12:44:47;0.93;;;0.93;;
31378;SDS011;61664;48.112;11.662;2022-07-29T12:47:16;2.72;;;1.10;;
31378;SDS011;61664;48.112;11.662;2022-07-29T12:49:45;1.05;;;0.80;;
31378;SDS011;61664;48.112;11.662;2022-07-29T12:52:26;2.15;;;1.00;;
31378;SDS011;61664;48.112;11.662;2022-07-29T12:55:00;1.15;;;1.05;;
31378;SDS011;61664;48.112;11.662;2022-07-29T12:57:35;0.82;;;0.82;;
31378;SDS011;61664;48.112;11.662;2022-07-29T13:00:31;1.17;;;1.08;;
31378;SDS011;61664;48.112;11.662;2022-07-29T13:02:59;0.90;;;0.90;;
31378;SDS011;61664;48.112;11.662;2022-07-29T13:05:43;0.60;;;0.60;;
31378;SDS011;61664;48.112;11.662;2022-07-29T13:08:15;0.77;;;0.75;;
31378;SDS011;61664;48.112;11.662;2022-07-29T13:10:48;0.88;;;0.88;;
31378;SDS011;61664;48.112;11.662;2022-07-29T13:13:15;1.25;;;1.05;;
31378;SDS011;61664;48.112;11.662;2022-07-29T13:15:42;1.15;;;1.10;;
31378;SDS011;61664;48.112;11.662;2022-07-29T13:18:33;1.48;;;1.38;;
31378;SDS011;61664;48.112;11.662;2022-07-29T13:21:11;0.90;;;0.90;;
31378;SDS011;61664;48.112;11.662;2022-07-29T13:23:41;0.98;;;0.98;;
31378;SDS011;61664;48.112;11.662;2022-07-29T13:26:09;3.95;;;1.10;;
31378;SDS011;61664;48.112;11.662;2022-07-29T13:28:42;2.47;;;1.23;;
31378;SDS011;61664;48.112;11.662;2022-07-29T13:31:09;0.80;;;0.80;;
31378;SDS011;61664;48.112;11.662;2022-07-29T13:33:37;1.00;;;1.00;;
31378;SDS011;61664;48.112;11.662;2022-07-29T13:36:04;1.38;;;1.27;;
31378;SDS011;61664;48.112;11.662;2022-07-29T13:38:31;0.90;;;0.90;;
31378;SDS011;61664;48.112;11.662;2022-07-29T13:40:58;1.30;;;1.30;;
31378;SDS011;61664;48.112;11.662;2022-07-29T13:43:25;1.30;;;1.30;;
31378;SDS011;61664;48.112;11.662;2022-07-29T13:45:51;0.90;;;0.90;;
31378;SDS011;61664;48.112;11.662;2022-07-29T13:48:18;1.65;;;0.88;;
31378;SDS011;61664;48.112;11.662;2022-07-29T13:50:46;1.10;;;1.10;;
31378;SDS011;61664;48.112;11.662;2022-07-29T13:53:14;1.33;;;1.33;;
31378;SDS011;61664;48.112;11.662;2022-07-29T13:55:43;1.27;;;1.17;;
31378;SDS011;61664;48.112;11.662;2022-07-29T13:58:10;1.30;;;1.17;;
31378;SDS011;61664;48.112;11.662;2022-07-29T14:00:37;2.78;;;1.13;;
31378;SDS011;61664;48.112;11.662;2022-07-29T14:03:04;1.63;;;1.52;;
31378;SDS011;61664;48.112;11.662;2022-07-29T14:05:32;1.00;;;0.98;;
31378;SDS011;61664;48.112;11.662;2022-07-29T14:07:59;1.17;;;1.05;;
31378;SDS011;61664;48.112;11.662;2022-07-29T14:10:26;1.05;;;1.00;;
31378;SDS011;61664;48.112;11.662;2022-07-29T14:12:53;1.20;;;1.10;;
31378;SDS011;61664;48.112;11.662;2022-07-29T14:15:20;1.05;;;1.05;;
31378;SDS011;61664;48.112;11.662;2022-07-29T14:17:47;1.20;;;1.20;;
31378;SDS011;61664;48.112;11.662;2022-07-29T14:20:14;1.13;;;1.13;;
31378;SDS011;61664;48.112;11.662;2022-07-29T14:22:42;1.42;;;1.15;;
31378;SDS011;61664;48.112;11.662;2022-07-29T14:25:10;1.42;;;1.40;;
31378;SDS011;61664;48.112;11.662;2022-07-29T14:27:40;1.13;;;1.02;;
31378;SDS011;61664;48.112;11.662;2022-07-29T14:30:09;0.90;;;0.85;;
31378;SDS011;61664;48.112;11.662;2022-07-29T14:32:36;0.98;;;0.98;;
31378;SDS011;61664;48.112;11.662;2022-07-29T14:35:04;1.48;;;1.38;;
31378;SDS011;61664;48.112;11.662;2022-07-29T14:37:32;1.23;;;1.13;;
31378;SDS011;61664;48.112;11.662;2022-07-29T14:40:05;1.35;;;1.00;;
31378;SDS011;61664;48.112;11.662;2022-07-29T14:42:35;1.33;;;1.23;;
31378;SDS011;61664;48.112;11.662;2022-07-29T14:45:03;4.65;;;1.42;;
31378;SDS011;61664;48.112;11.662;2022-07-29T14:47:33;1.20;;;1.13;;
31378;SDS011;61664;48.112;11.662;2022-07-29T14:50:00;1.77;;;1.10;;
31378;SDS011;61664;48.112;11.662;2022-07-29T14:52:27;2.05;;;1.00;;
31378;SDS011;61664;48.112;11.662;2022-07-29T14:54:54;0.88;;;0.88;;
31378;SDS011;61664;48.112;11.662;2022-07-29T14:57:21;3.33;;;0.95;;
31378;SDS011;61664;48.112;11.662;2022-07-29T14:59:48;0.70;;;0.70;;
31378;SDS011;61664;48.112;11.662;2022-07-29T15:02:15;1.13;;;1.00;;
31378;SDS011;61664;48.112;11.662;2022-07-29T15:04:41;0.80;;;0.80;;
31378;SDS011;61664;48.112;11.662;2022-07-29T15:07:09;0.82;;;0.82;;
31378;SDS011;61664;48.112;11.662;2022-07-29T15:09:36;1.85;;;1.13;;
31378;SDS011;61664;48.112;11.662;2022-07-29T15:12:15;1.10;;;1.00;;
31378;SDS011;61664;48.112;11.662;2022-07-29T15:14:42;1.27;;;0.80;;
31378;SDS011;61664;48.112;11.662;2022-07-29T15:17:09;1.27;;;0.70;;
31378;SDS011;61664;48.112;11.662;2022-07-29T15:19:36;1.20;;;1.10;;
31378;SDS011;61664;48.112;11.662;2022-07-29T15:22:09;1.60;;;0.98;;
31378;SDS011;61664;48.112;11.662;2022-07-29T15:24:36;0.70;;;0.70;;
31378;SDS011;61664;48.112;11.662;2022-07-29T15:27:04;1.65;;;1.10;;
31378;SDS011;61664;48.112;11.662;2022-07-29T15:29:31;1.00;;;1.00;;
31378;SDS011;61664;48.112;11.662;2022-07-29T15:31:58;1.80;;;0.98;;
31378;SDS011;61664;48.112;11.662;2022-07-29T15:34:26;1.00;;;1.00;;
31378;SDS011;61664;48.112;11.662;2022-07-29T15:36:52;0.90;;;0.90;;
31378;SDS011;61664;48.112;11.662;2022-07-29T15:39:20;0.90;;;0.90;;
31378;SDS011;61664;48.112;11.662;2022-07-29T15:41:48;1.00;;;1.00;;
31378;SDS011;61664;48.112;11.662;2022-07-29T15:44:16;0.90;;;0.90;;
31378;SDS011;61664;48.112;11.662;2022-07-29T15:46:43;0.88;;;0.88;;
31378;SDS011;61664;48.112;11.662;2022-07-29T15:49:29;1.23;;;1.23;;